sensor_id;sensor_type;location;lat;lon;timestamp;temperature;humidity
72320;SHT30;60269;52.502;16.732;2022-09-02T00:00:22;9.39;93.32
72320;SHT30;60269;52.502;16.732;2022-09-02T00:04:23;9.39;93.09
72320;SHT30;60269;52.502;16.732;2022-09-02T00:08:22;9.20;93.24
72320;SHT30;60269;52.502;16.732;2022-09-02T00:12:01;9.01;94.31
72320;SHT30;60269;52.502;16.732;2022-09-02T00:15:52;8.73;95.38
72320;SHT30;60269;52.502;16.732;2022-09-02T00:19:31;8.94;94.88
72320;SHT30;60269;52.502;16.732;2022-09-02T00:23:30;9.07;94.12
72320;SHT30;60269;52.502;16.732;2022-09-02T00:27:29;9.26;93.95
72320;SHT30;60269;52.502;16.732;2022-09-02T00:31:28;9.07;94.00
72320;SHT30;60269;52.502;16.732;2022-09-02T00:35:08;9.01;94.18
72320;SHT30;60269;52.502;16.732;2022-09-02T00:39:07;8.93;94.11
72320;SHT30;60269;52.502;16.732;2022-09-02T00:42:46;8.66;94.85
72320;SHT30;60269;52.502;16.732;2022-09-02T00:46:37;8.60;95.53
72320;SHT30;60269;52.502;16.732;2022-09-02T00:50:26;8.46;96.08
72320;SHT30;60269;52.502;16.732;2022-09-02T00:54:20;8.46;96.33
72320;SHT30;60269;52.502;16.732;2022-09-02T00:58:07;8.22;96.71
72320;SHT30;60269;52.502;16.732;2022-09-02T01:01:59;8.10;97.35
72320;SHT30;60269;52.502;16.732;2022-09-02T01:05:46;8.52;96.86
72320;SHT30;60269;52.502;16.732;2022-09-02T01:09:38;8.79;95.52
72320;SHT30;60269;52.502;16.732;2022-09-02T01:13:19;8.59;95.79
72320;SHT30;60269;52.502;16.732;2022-09-02T01:17:19;8.62;95.80
72320;SHT30;60269;52.502;16.732;2022-09-02T01:20:58;8.58;95.85
72320;SHT30;60269;52.502;16.732;2022-09-02T01:24:51;8.39;96.59
72320;SHT30;60269;52.502;16.732;2022-09-02T01:28:30;8.42;96.58
72320;SHT30;60269;52.502;16.732;2022-09-02T01:32:23;8.38;96.38
72320;SHT30;60269;52.502;16.732;2022-09-02T01:36:03;8.41;96.14
72320;SHT30;60269;52.502;16.732;2022-09-02T01:40:02;8.24;96.61
72320;SHT30;60269;52.502;16.732;2022-09-02T01:43:41;8.29;96.56
72320;SHT30;60269;52.502;16.732;2022-09-02T01:47:34;8.18;96.60
72320;SHT30;60269;52.502;16.732;2022-09-02T01:51:20;8.04;96.61
72320;SHT30;60269;52.502;16.732;2022-09-02T01:55:12;7.93;97.24
72320;SHT30;60269;52.502;16.732;2022-09-02T01:58:50;7.90;97.54
72320;SHT30;60269;52.502;16.732;2022-09-02T02:02:42;7.83;97.81
72320;SHT30;60269;52.502;16.732;2022-09-02T02:06:27;7.73;98.23
72320;SHT30;60269;52.502;16.732;2022-09-02T02:10:20;7.65;98.17
72320;SHT30;60269;52.502;16.732;2022-09-02T02:13:58;7.62;98.36
72320;SHT30;60269;52.502;16.732;2022-09-02T02:17:57;7.56;98.34
72320;SHT30;60269;52.502;16.732;2022-09-02T02:21:36;7.53;98.86
72320;SHT30;60269;52.502;16.732;2022-09-02T02:25:34;7.63;98.49
72320;SHT30;60269;52.502;16.732;2022-09-02T02:29:33;7.50;98.57
72320;SHT30;60269;52.502;16.732;2022-09-02T02:33:12;7.55;98.88
72320;SHT30;60269;52.502;16.732;2022-09-02T02:37:20;7.62;98.78
72320;SHT30;60269;52.502;16.732;2022-09-02T02:40:58;7.62;98.70
72320;SHT30;60269;52.502;16.732;2022-09-02T02:44:57;7.49;98.69
72320;SHT30;60269;52.502;16.732;2022-09-02T02:48:35;7.59;98.98
72320;SHT30;60269;52.502;16.732;2022-09-02T02:52:27;7.60;98.72
72320;SHT30;60269;52.502;16.732;2022-09-02T02:56:12;7.46;98.62
72320;SHT30;60269;52.502;16.732;2022-09-02T03:00:14;7.43;98.68
72320;SHT30;60269;52.502;16.732;2022-09-02T03:03:52;7.38;99.14
72320;SHT30;60269;52.502;16.732;2022-09-02T03:07:44;7.41;99.07
72320;SHT30;60269;52.502;16.732;2022-09-02T03:11:29;7.55;99.09
72320;SHT30;60269;52.502;16.732;2022-09-02T03:15:21;7.55;98.98
72320;SHT30;60269;52.502;16.732;2022-09-02T03:19:06;7.52;99.12
72320;SHT30;60269;52.502;16.732;2022-09-02T03:22:54;7.48;99.06
72320;SHT30;60269;52.502;16.732;2022-09-02T03:26:41;7.42;99.18
72320;SHT30;60269;52.502;16.732;2022-09-02T03:30:34;7.48;99.49
72320;SHT30;60269;52.502;16.732;2022-09-02T03:34:19;7.38;99.22
72320;SHT30;60269;52.502;16.732;2022-09-02T03:38:07;7.23;99.43
72320;SHT30;60269;52.502;16.732;2022-09-02T03:41:53;7.19;99.48
72320;SHT30;60269;52.502;16.732;2022-09-02T03:45:38;7.35;99.32
72320;SHT30;60269;52.502;16.732;2022-09-02T03:49:25;7.39;99.31
72320;SHT30;60269;52.502;16.732;2022-09-02T03:53:10;7.43;99.48
72320;SHT30;60269;52.502;16.732;2022-09-02T03:56:59;7.38;98.98
72320;SHT30;60269;52.502;16.732;2022-09-02T04:00:52;7.39;99.09
72320;SHT30;60269;52.502;16.732;2022-09-02T04:04:37;7.33;99.29
72320;SHT30;60269;52.502;16.732;2022-09-02T04:08:22;7.29;99.49
72320;SHT30;60269;52.502;16.732;2022-09-02T04:12:07;7.12;99.59
72320;SHT30;60269;52.502;16.732;2022-09-02T04:16:08;6.97;99.79
72320;SHT30;60269;52.502;16.732;2022-09-02T04:19:53;6.90;99.99
72320;SHT30;60269;52.502;16.732;2022-09-02T04:23:38;7.11;99.99
72320;SHT30;60269;52.502;16.732;2022-09-02T04:27:23;6.98;99.99
72320;SHT30;60269;52.502;16.732;2022-09-02T04:31:17;7.01;99.99
72320;SHT30;60269;52.502;16.732;2022-09-02T04:35:03;6.94;99.99
72320;SHT30;60269;52.502;16.732;2022-09-02T04:38:48;6.90;99.99
72320;SHT30;60269;52.502;16.732;2022-09-02T04:42:33;7.19;99.99
72320;SHT30;60269;52.502;16.732;2022-09-02T04:46:25;7.38;99.99
72320;SHT30;60269;52.502;16.732;2022-09-02T04:50:11;7.53;99.99
72320;SHT30;60269;52.502;16.732;2022-09-02T04:53:56;7.73;99.69
72320;SHT30;60269;52.502;16.732;2022-09-02T04:57:41;7.73;99.41
72320;SHT30;60269;52.502;16.732;2022-09-02T05:01:33;7.95;99.30
72320;SHT30;60269;52.502;16.732;2022-09-02T05:05:21;8.05;98.98
72320;SHT30;60269;52.502;16.732;2022-09-02T05:09:06;8.15;98.71
72320;SHT30;60269;52.502;16.732;2022-09-02T05:12:52;8.21;98.79
72320;SHT30;60269;52.502;16.732;2022-09-02T05:16:44;8.42;98.62
72320;SHT30;60269;52.502;16.732;2022-09-02T05:20:29;8.50;98.42
72320;SHT30;60269;52.502;16.732;2022-09-02T05:24:16;8.73;98.02
72320;SHT30;60269;52.502;16.732;2022-09-02T05:28:05;8.94;97.49
72320;SHT30;60269;52.502;16.732;2022-09-02T05:32:04;9.16;96.83
72320;SHT30;60269;52.502;16.732;2022-09-02T05:35:44;9.47;96.00
72320;SHT30;60269;52.502;16.732;2022-09-02T05:39:44;9.75;95.05
72320;SHT30;60269;52.502;16.732;2022-09-02T05:43:45;10.03;94.00
72320;SHT30;60269;52.502;16.732;2022-09-02T05:47:26;10.37;92.60
72320;SHT30;60269;52.502;16.732;2022-09-02T05:51:24;10.74;91.53
72320;SHT30;60269;52.502;16.732;2022-09-02T05:55:03;11.18;90.11
72320;SHT30;60269;52.502;16.732;2022-09-02T05:58:56;11.59;87.62
72320;SHT30;60269;52.502;16.732;2022-09-02T06:02:36;11.87;86.87
72320;SHT30;60269;52.502;16.732;2022-09-02T06:06:35;12.14;86.18
72320;SHT30;60269;52.502;16.732;2022-09-02T06:10:22;12.93;83.22
72320;SHT30;60269;52.502;16.732;2022-09-02T06:14:07;13.14;82.80
72320;SHT30;60269;52.502;16.732;2022-09-02T06:17:53;14.58;77.50
72320;SHT30;60269;52.502;16.732;2022-09-02T06:21:46;16.22;74.47
72320;SHT30;60269;52.502;16.732;2022-09-02T06:25:35;17.00;69.16
72320;SHT30;60269;52.502;16.732;2022-09-02T06:29:21;17.67;66.13
72320;SHT30;60269;52.502;16.732;2022-09-02T06:33:07;18.29;64.04
72320;SHT30;60269;52.502;16.732;2022-09-02T06:36:52;18.73;60.31
72320;SHT30;60269;52.502;16.732;2022-09-02T06:40:49;18.66;59.27
72320;SHT30;60269;52.502;16.732;2022-09-02T06:44:41;19.02;56.26
72320;SHT30;60269;52.502;16.732;2022-09-02T06:48:27;19.62;54.36
72320;SHT30;60269;52.502;16.732;2022-09-02T06:52:18;19.57;53.37
72320;SHT30;60269;52.502;16.732;2022-09-02T06:56:06;18.65;55.38
72320;SHT30;60269;52.502;16.732;2022-09-02T06:59:51;18.05;55.85
72320;SHT30;60269;52.502;16.732;2022-09-02T07:03:39;18.24;57.17
72320;SHT30;60269;52.502;16.732;2022-09-02T07:07:49;18.72;55.90
72320;SHT30;60269;52.502;16.732;2022-09-02T07:11:38;19.66;53.80
72320;SHT30;60269;52.502;16.732;2022-09-02T07:15:24;21.37;47.94
72320;SHT30;60269;52.502;16.732;2022-09-02T07:19:10;22.25;45.23
72320;SHT30;60269;52.502;16.732;2022-09-02T07:23:02;22.83;43.27
72320;SHT30;60269;52.502;16.732;2022-09-02T07:26:49;22.86;43.08
72320;SHT30;60269;52.502;16.732;2022-09-02T07:30:35;22.99;42.01
72320;SHT30;60269;52.502;16.732;2022-09-02T07:34:21;22.99;40.92
72320;SHT30;60269;52.502;16.732;2022-09-02T07:38:12;23.28;41.02
72320;SHT30;60269;52.502;16.732;2022-09-02T07:41:52;22.94;41.42
72320;SHT30;60269;52.502;16.732;2022-09-02T07:45:51;22.91;40.90
72320;SHT30;60269;52.502;16.732;2022-09-02T07:49:31;22.77;41.43
72320;SHT30;60269;52.502;16.732;2022-09-02T07:53:50;22.73;41.41
72320;SHT30;60269;52.502;16.732;2022-09-02T07:57:29;22.42;42.68
72320;SHT30;60269;52.502;16.732;2022-09-02T08:01:20;22.34;42.77
72320;SHT30;60269;52.502;16.732;2022-09-02T08:04:59;22.38;41.94
72320;SHT30;60269;52.502;16.732;2022-09-02T08:08:58;22.21;41.45
72320;SHT30;60269;52.502;16.732;2022-09-02T08:12:39;22.41;41.76
72320;SHT30;60269;52.502;16.732;2022-09-02T08:16:31;22.34;40.78
72320;SHT30;60269;52.502;16.732;2022-09-02T08:20:12;22.38;41.18
72320;SHT30;60269;52.502;16.732;2022-09-02T08:24:10;22.26;40.97
72320;SHT30;60269;52.502;16.732;2022-09-02T08:27:49;22.63;39.78
72320;SHT30;60269;52.502;16.732;2022-09-02T08:31:38;23.32;38.01
72320;SHT30;60269;52.502;16.732;2022-09-02T08:35:26;23.41;38.80
72320;SHT30;60269;52.502;16.732;2022-09-02T08:39:11;23.41;37.12
72320;SHT30;60269;52.502;16.732;2022-09-02T08:43:13;23.68;36.88
72320;SHT30;60269;52.502;16.732;2022-09-02T08:47:04;23.83;36.46
72320;SHT30;60269;52.502;16.732;2022-09-02T08:50:51;23.78;36.89
72320;SHT30;60269;52.502;16.732;2022-09-02T08:54:50;23.37;37.44
72320;SHT30;60269;52.502;16.732;2022-09-02T08:58:50;23.92;37.03
72320;SHT30;60269;52.502;16.732;2022-09-02T09:03:09;23.79;36.75
72320;SHT30;60269;52.502;16.732;2022-09-02T09:11:38;24.06;37.01
72320;SHT30;60269;52.502;16.732;2022-09-02T09:19:48;24.36;34.64
72320;SHT30;60269;52.502;16.732;2022-09-02T09:23:51;24.27;34.98
72320;SHT30;60269;52.502;16.732;2022-09-02T09:27:31;23.96;35.88
72320;SHT30;60269;52.502;16.732;2022-09-02T09:31:31;24.48;34.99
72320;SHT30;60269;52.502;16.732;2022-09-02T09:35:12;24.91;34.20
72320;SHT30;60269;52.502;16.732;2022-09-02T09:47:01;25.70;33.24
72320;SHT30;60269;52.502;16.732;2022-09-02T09:54:40;26.73;31.59
72320;SHT30;60269;52.502;16.732;2022-09-02T09:58:41;26.59;31.49
72320;SHT30;60269;52.502;16.732;2022-09-02T10:02:33;26.56;31.17
72320;SHT30;60269;52.502;16.732;2022-09-02T10:10:20;26.21;31.63
72320;SHT30;60269;52.502;16.732;2022-09-02T10:14:07;26.17;30.85
72320;SHT30;60269;52.502;16.732;2022-09-02T10:18:24;26.94;30.32
72320;SHT30;60269;52.502;16.732;2022-09-02T10:22:20;27.52;29.49
72320;SHT30;60269;52.502;16.732;2022-09-02T10:26:37;27.18;28.72
72320;SHT30;60269;52.502;16.732;2022-09-02T10:30:23;27.15;29.55
72320;SHT30;60269;52.502;16.732;2022-09-02T10:42:20;29.51;26.89
72320;SHT30;60269;52.502;16.732;2022-09-02T10:46:16;29.40;26.65
72320;SHT30;60269;52.502;16.732;2022-09-02T10:50:22;28.55;28.22
72320;SHT30;60269;52.502;16.732;2022-09-02T10:58:47;30.26;25.99
72320;SHT30;60269;52.502;16.732;2022-09-02T11:02:30;30.16;25.47
72320;SHT30;60269;52.502;16.732;2022-09-02T11:06:39;30.40;25.18
72320;SHT30;60269;52.502;16.732;2022-09-02T11:10:37;29.68;25.83
72320;SHT30;60269;52.502;16.732;2022-09-02T11:22:57;27.44;28.56
72320;SHT30;60269;52.502;16.732;2022-09-02T11:30:59;26.77;28.98
72320;SHT30;60269;52.502;16.732;2022-09-02T11:34:47;27.08;28.15
72320;SHT30;60269;52.502;16.732;2022-09-02T11:58:45;26.55;27.81
72320;SHT30;60269;52.502;16.732;2022-09-02T12:02:47;25.56;28.97
72320;SHT30;60269;52.502;16.732;2022-09-02T12:06:28;25.22;30.09
72320;SHT30;60269;52.502;16.732;2022-09-02T12:18:27;27.75;26.09
72320;SHT30;60269;52.502;16.732;2022-09-02T12:26:10;29.02;24.39
72320;SHT30;60269;52.502;16.732;2022-09-02T12:29:56;28.54;24.96
72320;SHT30;60269;52.502;16.732;2022-09-02T12:33:48;28.52;25.93
72320;SHT30;60269;52.502;16.732;2022-09-02T12:37:54;29.66;23.06
72320;SHT30;60269;52.502;16.732;2022-09-02T12:45:40;30.86;23.18
72320;SHT30;60269;52.502;16.732;2022-09-02T12:49:47;28.52;25.03
72320;SHT30;60269;52.502;16.732;2022-09-02T12:53:45;27.44;27.31
72320;SHT30;60269;52.502;16.732;2022-09-02T12:57:41;27.62;27.48
72320;SHT30;60269;52.502;16.732;2022-09-02T13:06:26;25.97;28.37
72320;SHT30;60269;52.502;16.732;2022-09-02T13:15:06;25.77;29.10
72320;SHT30;60269;52.502;16.732;2022-09-02T13:27:32;28.14;25.72
72320;SHT30;60269;52.502;16.732;2022-09-02T13:31:30;28.94;24.75
72320;SHT30;60269;52.502;16.732;2022-09-02T13:35:19;29.76;23.98
72320;SHT30;60269;52.502;16.732;2022-09-02T13:39:19;29.91;24.34
72320;SHT30;60269;52.502;16.732;2022-09-02T13:43:09;27.41;26.59
72320;SHT30;60269;52.502;16.732;2022-09-02T13:47:14;26.12;28.84
72320;SHT30;60269;52.502;16.732;2022-09-02T13:51:10;26.26;28.73
72320;SHT30;60269;52.502;16.732;2022-09-02T13:55:03;27.56;26.43
72320;SHT30;60269;52.502;16.732;2022-09-02T13:58:53;28.48;26.10
72320;SHT30;60269;52.502;16.732;2022-09-02T14:02:55;29.05;24.69
72320;SHT30;60269;52.502;16.732;2022-09-02T14:06:44;29.51;24.54
72320;SHT30;60269;52.502;16.732;2022-09-02T14:10:38;29.29;24.08
72320;SHT30;60269;52.502;16.732;2022-09-02T14:14:22;29.45;23.41
72320;SHT30;60269;52.502;16.732;2022-09-02T14:18:22;29.43;23.81
72320;SHT30;60269;52.502;16.732;2022-09-02T14:22:02;28.72;23.78
72320;SHT30;60269;52.502;16.732;2022-09-02T14:26:01;29.10;24.71
72320;SHT30;60269;52.502;16.732;2022-09-02T14:30:08;29.40;24.80
72320;SHT30;60269;52.502;16.732;2022-09-02T14:34:35;27.31;26.29
72320;SHT30;60269;52.502;16.732;2022-09-02T14:38:22;25.77;29.09
72320;SHT30;60269;52.502;16.732;2022-09-02T14:42:20;25.01;29.97
72320;SHT30;60269;52.502;16.732;2022-09-02T14:50:11;24.21;31.57
72320;SHT30;60269;52.502;16.732;2022-09-02T14:54:10;24.10;31.46
72320;SHT30;60269;52.502;16.732;2022-09-02T14:58:09;23.97;31.84
72320;SHT30;60269;52.502;16.732;2022-09-02T15:06:05;23.34;32.94
72320;SHT30;60269;52.502;16.732;2022-09-02T15:10:04;25.05;30.45
72320;SHT30;60269;52.502;16.732;2022-09-02T15:13:45;25.74;29.01
72320;SHT30;60269;52.502;16.732;2022-09-02T15:17:44;24.48;30.63
72320;SHT30;60269;52.502;16.732;2022-09-02T15:21:42;23.55;32.62
72320;SHT30;60269;52.502;16.732;2022-09-02T15:25:41;22.82;33.85
72320;SHT30;60269;52.502;16.732;2022-09-02T15:29:20;24.16;31.83
72320;SHT30;60269;52.502;16.732;2022-09-02T15:33:18;25.57;30.34
72320;SHT30;60269;52.502;16.732;2022-09-02T15:36:57;25.88;29.86
72320;SHT30;60269;52.502;16.732;2022-09-02T15:40:48;26.40;29.01
72320;SHT30;60269;52.502;16.732;2022-09-02T15:44:34;26.00;28.48
72320;SHT30;60269;52.502;16.732;2022-09-02T15:48:25;26.49;28.36
72320;SHT30;60269;52.502;16.732;2022-09-02T15:52:04;26.94;27.33
72320;SHT30;60269;52.502;16.732;2022-09-02T15:55:56;27.21;26.86
72320;SHT30;60269;52.502;16.732;2022-09-02T15:59:41;26.60;28.25
72320;SHT30;60269;52.502;16.732;2022-09-02T16:03:42;26.31;28.67
72320;SHT30;60269;52.502;16.732;2022-09-02T16:07:21;26.25;28.74
72320;SHT30;60269;52.502;16.732;2022-09-02T16:11:12;26.24;28.54
72320;SHT30;60269;52.502;16.732;2022-09-02T16:14:58;25.90;28.70
72320;SHT30;60269;52.502;16.732;2022-09-02T16:18:56;26.15;28.99
72320;SHT30;60269;52.502;16.732;2022-09-02T16:22:55;25.29;30.04
72320;SHT30;60269;52.502;16.732;2022-09-02T16:26:39;25.05;30.18
72320;SHT30;60269;52.502;16.732;2022-09-02T16:30:37;24.88;30.45
72320;SHT30;60269;52.502;16.732;2022-09-02T16:34:17;24.60;30.27
72320;SHT30;60269;52.502;16.732;2022-09-02T16:38:15;24.44;30.68
72320;SHT30;60269;52.502;16.732;2022-09-02T16:42:14;23.96;31.49
72320;SHT30;60269;52.502;16.732;2022-09-02T16:45:58;23.62;32.12
72320;SHT30;60269;52.502;16.732;2022-09-02T16:49:57;23.42;32.84
72320;SHT30;60269;52.502;16.732;2022-09-02T16:53:36;23.37;33.48
72320;SHT30;60269;52.502;16.732;2022-09-02T16:57:34;23.01;33.76
72320;SHT30;60269;52.502;16.732;2022-09-02T17:01:13;22.86;34.09
72320;SHT30;60269;52.502;16.732;2022-09-02T17:05:16;22.02;35.65
72320;SHT30;60269;52.502;16.732;2022-09-02T17:08:56;21.68;36.42
72320;SHT30;60269;52.502;16.732;2022-09-02T17:12:47;21.12;37.53
72320;SHT30;60269;52.502;16.732;2022-09-02T17:16:37;19.81;40.37
72320;SHT30;60269;52.502;16.732;2022-09-02T17:20:36;18.87;42.69
72320;SHT30;60269;52.502;16.732;2022-09-02T17:24:16;18.17;44.29
72320;SHT30;60269;52.502;16.732;2022-09-02T17:28:02;17.84;45.11
72320;SHT30;60269;52.502;16.732;2022-09-02T17:31:54;17.35;46.50
72320;SHT30;60269;52.502;16.732;2022-09-02T17:35:32;16.91;47.98
72320;SHT30;60269;52.502;16.732;2022-09-02T17:39:31;16.52;49.32
72320;SHT30;60269;52.502;16.732;2022-09-02T17:43:30;16.17;50.35
72320;SHT30;60269;52.502;16.732;2022-09-02T17:47:29;15.98;50.98
72320;SHT30;60269;52.502;16.732;2022-09-02T17:51:08;15.78;51.13
72320;SHT30;60269;52.502;16.732;2022-09-02T17:55:09;15.54;51.85
72320;SHT30;60269;52.502;16.732;2022-09-02T17:58:56;15.31;52.24
72320;SHT30;60269;52.502;16.732;2022-09-02T18:06:45;14.89;53.65
72320;SHT30;60269;52.502;16.732;2022-09-02T18:10:56;14.65;54.24
72320;SHT30;60269;52.502;16.732;2022-09-02T18:15:00;14.59;54.30
72320;SHT30;60269;52.502;16.732;2022-09-02T18:31:24;14.09;56.50
72320;SHT30;60269;52.502;16.732;2022-09-02T18:43:23;13.67;58.24
72320;SHT30;60269;52.502;16.732;2022-09-02T18:47:23;13.59;58.48
72320;SHT30;60269;52.502;16.732;2022-09-02T18:51:09;13.45;59.11
72320;SHT30;60269;52.502;16.732;2022-09-02T18:55:08;13.34;59.48
72320;SHT30;60269;52.502;16.732;2022-09-02T18:59:01;13.16;60.28
72320;SHT30;60269;52.502;16.732;2022-09-02T19:03:02;13.21;60.14
72320;SHT30;60269;52.502;16.732;2022-09-02T19:06:42;13.21;60.14
72320;SHT30;60269;52.502;16.732;2022-09-02T19:10:33;13.05;60.99
72320;SHT30;60269;52.502;16.732;2022-09-02T19:14:23;12.91;61.53
72320;SHT30;60269;52.502;16.732;2022-09-02T19:18:21;12.91;61.72
72320;SHT30;60269;52.502;16.732;2022-09-02T19:22:21;12.86;61.73
72320;SHT30;60269;52.502;16.732;2022-09-02T19:26:16;12.74;62.50
72320;SHT30;60269;52.502;16.732;2022-09-02T19:30:05;12.64;62.99
72320;SHT30;60269;52.502;16.732;2022-09-02T19:33:59;12.60;63.09
72320;SHT30;60269;52.502;16.732;2022-09-02T19:37:47;12.60;63.10
72320;SHT30;60269;52.502;16.732;2022-09-02T19:41:32;12.50;63.23
72320;SHT30;60269;52.502;16.732;2022-09-02T19:45:17;12.52;63.40
72320;SHT30;60269;52.502;16.732;2022-09-02T19:49:13;12.36;64.15
72320;SHT30;60269;52.502;16.732;2022-09-02T19:52:58;12.30;64.92
72320;SHT30;60269;52.502;16.732;2022-09-02T19:56:44;12.19;65.32
72320;SHT30;60269;52.502;16.732;2022-09-02T20:00:29;12.08;66.03
72320;SHT30;60269;52.502;16.732;2022-09-02T20:04:20;12.18;66.13
72320;SHT30;60269;52.502;16.732;2022-09-02T20:08:08;12.12;66.14
72320;SHT30;60269;52.502;16.732;2022-09-02T20:11:54;11.87;67.07
72320;SHT30;60269;52.502;16.732;2022-09-02T20:15:39;11.71;68.14
72320;SHT30;60269;52.502;16.732;2022-09-02T20:19:31;11.60;68.96
72320;SHT30;60269;52.502;16.732;2022-09-02T20:23:12;11.59;68.61
72320;SHT30;60269;52.502;16.732;2022-09-02T20:27:40;11.56;69.20
72320;SHT30;60269;52.502;16.732;2022-09-02T20:39:45;11.33;71.36
72320;SHT30;60269;52.502;16.732;2022-09-02T20:48:17;11.18;72.71
72320;SHT30;60269;52.502;16.732;2022-09-02T20:56:17;11.13;73.21
72320;SHT30;60269;52.502;16.732;2022-09-02T21:00:18;11.15;73.40
72320;SHT30;60269;52.502;16.732;2022-09-02T21:04:06;11.06;74.13
72320;SHT30;60269;52.502;16.732;2022-09-02T21:08:19;11.02;74.55
72320;SHT30;60269;52.502;16.732;2022-09-02T21:12:09;10.88;75.17
72320;SHT30;60269;52.502;16.732;2022-09-02T21:16:15;10.81;75.64
72320;SHT30;60269;52.502;16.732;2022-09-02T21:20:23;10.82;76.43
72320;SHT30;60269;52.502;16.732;2022-09-02T21:24:21;10.68;77.04
72320;SHT30;60269;52.502;16.732;2022-09-02T21:28:42;10.60;77.81
72320;SHT30;60269;52.502;16.732;2022-09-02T21:36:38;10.64;78.51
72320;SHT30;60269;52.502;16.732;2022-09-02T21:40:18;10.60;78.86
72320;SHT30;60269;52.502;16.732;2022-09-02T21:44:37;10.55;79.19
72320;SHT30;60269;52.502;16.732;2022-09-02T21:53:02;10.67;79.25
72320;SHT30;60269;52.502;16.732;2022-09-02T22:01:06;10.67;79.38
72320;SHT30;60269;52.502;16.732;2022-09-02T22:09:05;10.61;80.19
72320;SHT30;60269;52.502;16.732;2022-09-02T22:13:01;10.57;80.31
72320;SHT30;60269;52.502;16.732;2022-09-02T22:16:56;10.51;80.38
72320;SHT30;60269;52.502;16.732;2022-09-02T22:20:58;10.38;81.35
72320;SHT30;60269;52.502;16.732;2022-09-02T22:24:38;10.36;81.71
72320;SHT30;60269;52.502;16.732;2022-09-02T22:28:38;10.32;82.12
72320;SHT30;60269;52.502;16.732;2022-09-02T22:32:20;10.27;82.29
72320;SHT30;60269;52.502;16.732;2022-09-02T22:36:33;10.21;82.61
72320;SHT30;60269;52.502;16.732;2022-09-02T22:40:16;10.24;82.88
72320;SHT30;60269;52.502;16.732;2022-09-02T22:44:31;10.37;82.58
72320;SHT30;60269;52.502;16.732;2022-09-02T22:48:54;10.29;82.93
72320;SHT30;60269;52.502;16.732;2022-09-02T22:52:53;10.30;83.21
72320;SHT30;60269;52.502;16.732;2022-09-02T23:09:35;10.13;85.01
72320;SHT30;60269;52.502;16.732;2022-09-02T23:13:19;10.17;85.06
72320;SHT30;60269;52.502;16.732;2022-09-02T23:29:42;10.21;85.18
72320;SHT30;60269;52.502;16.732;2022-09-02T23:33:47;10.18;85.04
72320;SHT30;60269;52.502;16.732;2022-09-02T23:41:27;10.21;85.29
72320;SHT30;60269;52.502;16.732;2022-09-02T23:45:29;10.13;85.70
72320;SHT30;60269;52.502;16.732;2022-09-02T23:49:20;10.02;86.20
